Philadelphia, Pennsylvania
Traffic Map
Current Weather Conditions
Philadelphia, Pennsylvania
Broken Clouds
Broken Clouds
28°
Feels Like: 30°
Wind Chill: 28° Ceiling: 7500
Heat Index: 30° Visibility: 10mi
Dew Point: 21° Wind: 8mph
Humidity: 65% Direction: 350° (N)
Pressure: 29.95in Gusts: 0mph
Raw Report DataKPHL 211254Z 35007KT 10SM BKN075 BKN095 28/21 A2995 RMK AO2 SLP142 T02780206 $
Traffic Incident Summary
Active as of:
Severity:
Category:
InformationThere was an issue retrieving the traffic information for this location. Please try a different location or try again shortly.
Advertisements
Track Severe Weather on mobile